CheckWX is a tool to help pilots better visualize weather data.  It is not intended as a substitute for an official pre-flight weather briefing.

09:17:50 UTC

EGSC METAR
Cambridge Airport
Cambridge, United Kingdom
Current

28 mins ago

EGSC 120850Z 16011KT 9999 -RA FEW035 03/01 Q0995
Observed
Dec-12 @ 08:50 UTC
Wind
  • 160° at 11 KTS
Visibility
10,000+ meters
Flight Rules
VFR
Conditions
Light Rain
Cloud Levels
  • Few at 3,500' AGL
Temperature
C / 37°F
Dewpoint
C / 34°F
Humidity
87%
Altimeter
29.38" Hg
Pressure
994.92 hPa
Previous

58 mins ago

EGSC 120820Z 17010KT CAVOK 03/01 Q0995
Observed
Dec-12 @ 08:20 UTC
Wind
  • 170° at 10 KTS
Visibility
10,000+ meters
Flight Rules
VFR
Cloud Levels
  • Clear skies
Temperature
C / 37°F
Dewpoint
C / 34°F
Humidity
87%
Altimeter
29.38" Hg
Pressure
994.92 hPa
Previous

1 hour ago

EGSC 120750Z 18010KT CAVOK 02/00 Q0996
Observed
Dec-12 @ 07:50 UTC
Wind
  • 180° at 10 KTS
Visibility
10,000+ meters
Flight Rules
VFR
Cloud Levels
  • Clear skies
Temperature
C / 36°F
Dewpoint
C / 32°F
Humidity
87%
Altimeter
29.41" Hg
Pressure
995.92 hPa